sensor_id;sensor_type;location;lat;lon;timestamp;P1;durP1;ratioP1;P2;durP2;ratioP2
52734;SDS011;38631;47.572;10.704;2022-07-17T00:01:12;3.13;;;2.65;;
52734;SDS011;38631;47.572;10.704;2022-07-17T00:03:38;3.30;;;2.42;;
52734;SDS011;38631;47.572;10.704;2022-07-17T00:06:03;7.20;;;2.63;;
52734;SDS011;38631;47.572;10.704;2022-07-17T00:08:28;3.97;;;2.63;;
52734;SDS011;38631;47.572;10.704;2022-07-17T00:10:56;4.40;;;2.78;;
52734;SDS011;38631;47.572;10.704;2022-07-17T00:13:21;4.43;;;2.72;;
52734;SDS011;38631;47.572;10.704;2022-07-17T00:15:46;6.13;;;2.50;;
52734;SDS011;38631;47.572;10.704;2022-07-17T00:18:11;7.17;;;3.03;;
52734;SDS011;38631;47.572;10.704;2022-07-17T00:20:36;3.83;;;3.00;;
52734;SDS011;38631;47.572;10.704;2022-07-17T00:23:02;3.77;;;2.63;;
52734;SDS011;38631;47.572;10.704;2022-07-17T00:25:27;5.27;;;2.80;;
52734;SDS011;38631;47.572;10.704;2022-07-17T00:27:52;4.93;;;2.47;;
52734;SDS011;38631;47.572;10.704;2022-07-17T00:30:17;4.17;;;3.00;;
52734;SDS011;38631;47.572;10.704;2022-07-17T00:32:43;6.60;;;3.10;;
52734;SDS011;38631;47.572;10.704;2022-07-17T00:35:09;3.50;;;2.42;;
52734;SDS011;38631;47.572;10.704;2022-07-17T00:37:39;5.10;;;3.40;;
52734;SDS011;38631;47.572;10.704;2022-07-17T00:40:05;4.30;;;2.45;;
52734;SDS011;38631;47.572;10.704;2022-07-17T00:42:30;5.05;;;3.53;;
52734;SDS011;38631;47.572;10.704;2022-07-17T00:44:55;3.27;;;2.77;;
52734;SDS011;38631;47.572;10.704;2022-07-17T00:47:21;5.57;;;2.97;;
52734;SDS011;38631;47.572;10.704;2022-07-17T00:49:47;6.03;;;2.95;;
52734;SDS011;38631;47.572;10.704;2022-07-17T00:52:12;3.78;;;2.78;;
52734;SDS011;38631;47.572;10.704;2022-07-17T00:54:38;5.10;;;3.00;;
52734;SDS011;38631;47.572;10.704;2022-07-17T00:57:08;3.58;;;2.47;;
52734;SDS011;38631;47.572;10.704;2022-07-17T00:59:34;4.97;;;3.25;;
52734;SDS011;38631;47.572;10.704;2022-07-17T01:02:00;3.95;;;3.03;;
52734;SDS011;38631;47.572;10.704;2022-07-17T01:04:25;3.83;;;2.80;;
52734;SDS011;38631;47.572;10.704;2022-07-17T01:06:50;2.93;;;2.67;;
52734;SDS011;38631;47.572;10.704;2022-07-17T01:09:15;3.63;;;3.07;;
52734;SDS011;38631;47.572;10.704;2022-07-17T01:11:40;5.60;;;3.00;;
52734;SDS011;38631;47.572;10.704;2022-07-17T01:14:06;5.53;;;2.83;;
52734;SDS011;38631;47.572;10.704;2022-07-17T01:16:32;5.38;;;3.22;;
52734;SDS011;38631;47.572;10.704;2022-07-17T01:18:57;6.18;;;3.47;;
52734;SDS011;38631;47.572;10.704;2022-07-17T01:21:22;5.00;;;2.85;;
52734;SDS011;38631;47.572;10.704;2022-07-17T01:23:48;5.27;;;2.97;;
52734;SDS011;38631;47.572;10.704;2022-07-17T01:26:13;3.93;;;2.80;;
52734;SDS011;38631;47.572;10.704;2022-07-17T01:28:38;4.37;;;2.90;;
52734;SDS011;38631;47.572;10.704;2022-07-17T01:31:03;6.03;;;3.20;;
52734;SDS011;38631;47.572;10.704;2022-07-17T01:33:29;3.75;;;2.70;;
52734;SDS011;38631;47.572;10.704;2022-07-17T01:35:54;5.40;;;3.03;;
52734;SDS011;38631;47.572;10.704;2022-07-17T01:38:19;4.47;;;3.30;;
52734;SDS011;38631;47.572;10.704;2022-07-17T01:40:44;4.40;;;3.43;;
52734;SDS011;38631;47.572;10.704;2022-07-17T01:43:09;6.03;;;3.70;;
52734;SDS011;38631;47.572;10.704;2022-07-17T01:45:34;6.80;;;3.00;;
52734;SDS011;38631;47.572;10.704;2022-07-17T01:48:00;4.07;;;2.83;;
52734;SDS011;38631;47.572;10.704;2022-07-17T01:50:25;4.63;;;3.40;;
52734;SDS011;38631;47.572;10.704;2022-07-17T01:52:50;5.03;;;3.17;;
52734;SDS011;38631;47.572;10.704;2022-07-17T01:55:15;5.70;;;3.47;;
52734;SDS011;38631;47.572;10.704;2022-07-17T01:57:41;5.68;;;2.90;;
52734;SDS011;38631;47.572;10.704;2022-07-17T02:00:08;5.00;;;2.72;;
52734;SDS011;38631;47.572;10.704;2022-07-17T02:02:34;4.60;;;3.30;;
52734;SDS011;38631;47.572;10.704;2022-07-17T02:04:59;4.20;;;3.30;;
52734;SDS011;38631;47.572;10.704;2022-07-17T02:07:24;4.22;;;3.42;;
52734;SDS011;38631;47.572;10.704;2022-07-17T02:09:49;4.07;;;3.60;;
52734;SDS011;38631;47.572;10.704;2022-07-17T02:12:15;3.90;;;3.30;;
52734;SDS011;38631;47.572;10.704;2022-07-17T02:14:40;3.90;;;3.10;;
52734;SDS011;38631;47.572;10.704;2022-07-17T02:17:05;6.32;;;3.97;;
52734;SDS011;38631;47.572;10.704;2022-07-17T02:19:30;5.70;;;2.90;;
52734;SDS011;38631;47.572;10.704;2022-07-17T02:21:56;4.77;;;3.47;;
52734;SDS011;38631;47.572;10.704;2022-07-17T02:24:21;3.83;;;3.23;;
52734;SDS011;38631;47.572;10.704;2022-07-17T02:26:46;8.63;;;3.50;;
52734;SDS011;38631;47.572;10.704;2022-07-17T02:29:11;5.23;;;3.40;;
52734;SDS011;38631;47.572;10.704;2022-07-17T02:31:36;3.80;;;3.23;;
52734;SDS011;38631;47.572;10.704;2022-07-17T02:34:01;4.63;;;3.40;;
52734;SDS011;38631;47.572;10.704;2022-07-17T02:36:27;3.73;;;3.37;;
52734;SDS011;38631;47.572;10.704;2022-07-17T02:38:52;4.20;;;3.35;;
52734;SDS011;38631;47.572;10.704;2022-07-17T02:41:17;4.88;;;3.30;;
52734;SDS011;38631;47.572;10.704;2022-07-17T02:43:42;5.73;;;3.30;;
52734;SDS011;38631;47.572;10.704;2022-07-17T02:46:08;7.23;;;3.33;;
52734;SDS011;38631;47.572;10.704;2022-07-17T02:48:33;4.90;;;3.22;;
52734;SDS011;38631;47.572;10.704;2022-07-17T02:50:58;4.33;;;2.87;;
52734;SDS011;38631;47.572;10.704;2022-07-17T02:53:23;4.40;;;3.13;;
52734;SDS011;38631;47.572;10.704;2022-07-17T02:55:48;3.87;;;3.10;;
52734;SDS011;38631;47.572;10.704;2022-07-17T02:58:14;3.50;;;3.17;;
52734;SDS011;38631;47.572;10.704;2022-07-17T03:00:39;4.13;;;3.20;;
52734;SDS011;38631;47.572;10.704;2022-07-17T03:03:04;5.10;;;3.20;;
52734;SDS011;38631;47.572;10.704;2022-07-17T03:05:29;4.53;;;3.50;;
52734;SDS011;38631;47.572;10.704;2022-07-17T03:07:54;4.77;;;3.93;;
52734;SDS011;38631;47.572;10.704;2022-07-17T03:10:20;5.53;;;3.20;;
52734;SDS011;38631;47.572;10.704;2022-07-17T03:12:45;6.67;;;3.90;;
52734;SDS011;38631;47.572;10.704;2022-07-17T03:15:10;6.93;;;3.80;;
52734;SDS011;38631;47.572;10.704;2022-07-17T03:17:36;3.90;;;3.50;;
52734;SDS011;38631;47.572;10.704;2022-07-17T03:20:02;4.75;;;3.63;;
52734;SDS011;38631;47.572;10.704;2022-07-17T03:22:27;4.93;;;3.53;;
52734;SDS011;38631;47.572;10.704;2022-07-17T03:24:52;4.95;;;3.40;;
52734;SDS011;38631;47.572;10.704;2022-07-17T03:27:18;5.90;;;3.73;;
52734;SDS011;38631;47.572;10.704;2022-07-17T03:29:44;4.35;;;3.35;;
52734;SDS011;38631;47.572;10.704;2022-07-17T03:32:09;4.50;;;3.30;;
52734;SDS011;38631;47.572;10.704;2022-07-17T03:34:35;4.20;;;2.83;;
52734;SDS011;38631;47.572;10.704;2022-07-17T03:37:00;5.00;;;3.03;;
52734;SDS011;38631;47.572;10.704;2022-07-17T03:39:25;3.93;;;3.50;;
52734;SDS011;38631;47.572;10.704;2022-07-17T03:41:51;3.33;;;3.03;;
52734;SDS011;38631;47.572;10.704;2022-07-17T03:44:16;4.20;;;3.20;;
52734;SDS011;38631;47.572;10.704;2022-07-17T03:46:41;5.07;;;3.67;;
52734;SDS011;38631;47.572;10.704;2022-07-17T03:49:06;4.17;;;2.90;;
52734;SDS011;38631;47.572;10.704;2022-07-17T03:51:32;3.58;;;3.22;;
52734;SDS011;38631;47.572;10.704;2022-07-17T03:53:57;5.68;;;3.35;;
52734;SDS011;38631;47.572;10.704;2022-07-17T03:56:22;3.83;;;3.10;;
52734;SDS011;38631;47.572;10.704;2022-07-17T03:58:48;5.43;;;3.28;;
52734;SDS011;38631;47.572;10.704;2022-07-17T04:01:13;4.72;;;3.45;;
52734;SDS011;38631;47.572;10.704;2022-07-17T04:03:38;4.33;;;3.50;;
52734;SDS011;38631;47.572;10.704;2022-07-17T04:06:03;5.23;;;3.67;;
52734;SDS011;38631;47.572;10.704;2022-07-17T04:08:28;5.53;;;3.50;;
52734;SDS011;38631;47.572;10.704;2022-07-17T04:10:54;4.53;;;3.05;;
52734;SDS011;38631;47.572;10.704;2022-07-17T04:13:19;3.60;;;3.30;;
52734;SDS011;38631;47.572;10.704;2022-07-17T04:15:44;7.00;;;4.20;;
52734;SDS011;38631;47.572;10.704;2022-07-17T04:18:24;4.57;;;3.53;;
52734;SDS011;38631;47.572;10.704;2022-07-17T04:20:50;4.13;;;3.20;;
52734;SDS011;38631;47.572;10.704;2022-07-17T04:23:16;5.78;;;3.55;;
52734;SDS011;38631;47.572;10.704;2022-07-17T04:25:42;4.35;;;3.17;;
52734;SDS011;38631;47.572;10.704;2022-07-17T04:28:08;4.30;;;3.20;;
52734;SDS011;38631;47.572;10.704;2022-07-17T04:30:34;5.25;;;3.53;;
52734;SDS011;38631;47.572;10.704;2022-07-17T04:32:59;4.32;;;3.35;;
52734;SDS011;38631;47.572;10.704;2022-07-17T04:35:24;7.13;;;3.80;;
52734;SDS011;38631;47.572;10.704;2022-07-17T04:37:49;5.18;;;3.63;;
52734;SDS011;38631;47.572;10.704;2022-07-17T04:40:14;4.63;;;3.33;;
52734;SDS011;38631;47.572;10.704;2022-07-17T04:42:40;6.75;;;3.63;;
52734;SDS011;38631;47.572;10.704;2022-07-17T04:45:05;4.43;;;3.13;;
52734;SDS011;38631;47.572;10.704;2022-07-17T04:47:31;6.32;;;3.88;;
52734;SDS011;38631;47.572;10.704;2022-07-17T04:49:56;5.27;;;3.47;;
52734;SDS011;38631;47.572;10.704;2022-07-17T04:52:21;4.28;;;3.40;;
52734;SDS011;38631;47.572;10.704;2022-07-17T04:54:47;4.77;;;3.17;;
52734;SDS011;38631;47.572;10.704;2022-07-17T04:57:12;4.13;;;3.42;;
52734;SDS011;38631;47.572;10.704;2022-07-17T04:59:37;4.43;;;3.40;;
52734;SDS011;38631;47.572;10.704;2022-07-17T05:02:02;7.90;;;3.78;;
52734;SDS011;38631;47.572;10.704;2022-07-17T05:04:28;4.00;;;3.60;;
52734;SDS011;38631;47.572;10.704;2022-07-17T05:06:53;3.72;;;3.20;;
52734;SDS011;38631;47.572;10.704;2022-07-17T05:09:18;5.60;;;2.93;;
52734;SDS011;38631;47.572;10.704;2022-07-17T05:11:44;5.33;;;3.60;;
52734;SDS011;38631;47.572;10.704;2022-07-17T05:14:09;5.45;;;3.45;;
52734;SDS011;38631;47.572;10.704;2022-07-17T05:16:34;4.13;;;3.30;;
52734;SDS011;38631;47.572;10.704;2022-07-17T05:19:00;4.75;;;3.35;;
52734;SDS011;38631;47.572;10.704;2022-07-17T05:21:26;5.15;;;3.45;;
52734;SDS011;38631;47.572;10.704;2022-07-17T05:23:51;3.77;;;3.33;;
52734;SDS011;38631;47.572;10.704;2022-07-17T05:26:16;4.60;;;3.37;;
52734;SDS011;38631;47.572;10.704;2022-07-17T05:28:41;6.47;;;3.50;;
52734;SDS011;38631;47.572;10.704;2022-07-17T05:31:06;5.43;;;3.30;;
52734;SDS011;38631;47.572;10.704;2022-07-17T05:33:32;5.88;;;3.40;;
52734;SDS011;38631;47.572;10.704;2022-07-17T05:35:57;3.30;;;3.00;;
52734;SDS011;38631;47.572;10.704;2022-07-17T05:38:22;4.20;;;3.50;;
52734;SDS011;38631;47.572;10.704;2022-07-17T05:40:48;4.93;;;3.40;;
52734;SDS011;38631;47.572;10.704;2022-07-17T05:43:13;7.00;;;3.57;;
52734;SDS011;38631;47.572;10.704;2022-07-17T05:45:38;3.13;;;2.80;;
52734;SDS011;38631;47.572;10.704;2022-07-17T05:48:04;5.68;;;3.60;;
52734;SDS011;38631;47.572;10.704;2022-07-17T05:50:29;5.35;;;3.00;;
52734;SDS011;38631;47.572;10.704;2022-07-17T05:52:55;4.25;;;3.47;;
52734;SDS011;38631;47.572;10.704;2022-07-17T05:55:20;4.53;;;2.90;;
52734;SDS011;38631;47.572;10.704;2022-07-17T05:57:45;4.93;;;3.60;;
52734;SDS011;38631;47.572;10.704;2022-07-17T06:00:10;6.17;;;3.07;;
52734;SDS011;38631;47.572;10.704;2022-07-17T06:02:35;3.78;;;3.10;;
52734;SDS011;38631;47.572;10.704;2022-07-17T06:05:01;4.03;;;3.20;;
52734;SDS011;38631;47.572;10.704;2022-07-17T06:07:26;6.30;;;2.80;;
52734;SDS011;38631;47.572;10.704;2022-07-17T06:09:51;6.57;;;3.20;;
52734;SDS011;38631;47.572;10.704;2022-07-17T06:12:17;5.97;;;3.40;;
52734;SDS011;38631;47.572;10.704;2022-07-17T06:14:42;6.30;;;4.03;;
52734;SDS011;38631;47.572;10.704;2022-07-17T06:17:07;3.43;;;2.80;;
52734;SDS011;38631;47.572;10.704;2022-07-17T06:19:32;7.07;;;3.27;;
52734;SDS011;38631;47.572;10.704;2022-07-17T06:21:57;6.43;;;3.00;;
52734;SDS011;38631;47.572;10.704;2022-07-17T06:24:23;5.03;;;3.22;;
52734;SDS011;38631;47.572;10.704;2022-07-17T06:26:48;5.07;;;3.17;;
52734;SDS011;38631;47.572;10.704;2022-07-17T06:29:13;3.27;;;2.63;;
52734;SDS011;38631;47.572;10.704;2022-07-17T06:31:38;4.83;;;2.53;;
52734;SDS011;38631;47.572;10.704;2022-07-17T06:34:03;3.93;;;2.53;;
52734;SDS011;38631;47.572;10.704;2022-07-17T06:36:28;3.83;;;2.77;;
52734;SDS011;38631;47.572;10.704;2022-07-17T06:38:54;3.77;;;2.57;;
52734;SDS011;38631;47.572;10.704;2022-07-17T06:41:19;4.87;;;3.00;;
52734;SDS011;38631;47.572;10.704;2022-07-17T06:43:44;4.10;;;2.77;;
52734;SDS011;38631;47.572;10.704;2022-07-17T06:46:09;3.63;;;3.00;;
52734;SDS011;38631;47.572;10.704;2022-07-17T06:48:34;4.93;;;2.63;;
52734;SDS011;38631;47.572;10.704;2022-07-17T06:51:00;5.38;;;3.03;;
52734;SDS011;38631;47.572;10.704;2022-07-17T06:53:25;4.10;;;2.50;;
52734;SDS011;38631;47.572;10.704;2022-07-17T06:55:50;5.33;;;2.90;;
52734;SDS011;38631;47.572;10.704;2022-07-17T06:58:15;3.30;;;2.80;;
52734;SDS011;38631;47.572;10.704;2022-07-17T07:00:41;4.22;;;3.05;;
52734;SDS011;38631;47.572;10.704;2022-07-17T07:03:06;4.27;;;2.87;;
52734;SDS011;38631;47.572;10.704;2022-07-17T07:05:31;7.07;;;2.67;;
52734;SDS011;38631;47.572;10.704;2022-07-17T07:07:56;5.00;;;2.83;;
52734;SDS011;38631;47.572;10.704;2022-07-17T07:10:21;8.70;;;2.77;;
52734;SDS011;38631;47.572;10.704;2022-07-17T07:12:47;6.28;;;2.95;;
52734;SDS011;38631;47.572;10.704;2022-07-17T07:15:12;4.20;;;2.40;;
52734;SDS011;38631;47.572;10.704;2022-07-17T07:17:39;5.57;;;3.03;;
52734;SDS011;38631;47.572;10.704;2022-07-17T07:20:04;3.80;;;2.70;;
52734;SDS011;38631;47.572;10.704;2022-07-17T07:22:30;6.78;;;3.05;;
52734;SDS011;38631;47.572;10.704;2022-07-17T07:24:55;4.80;;;3.25;;
52734;SDS011;38631;47.572;10.704;2022-07-17T07:27:20;3.73;;;2.67;;
52734;SDS011;38631;47.572;10.704;2022-07-17T07:29:46;4.50;;;2.80;;
52734;SDS011;38631;47.572;10.704;2022-07-17T07:32:11;2.80;;;2.10;;
52734;SDS011;38631;47.572;10.704;2022-07-17T07:34:36;3.83;;;2.73;;
52734;SDS011;38631;47.572;10.704;2022-07-17T07:37:01;2.73;;;2.33;;
52734;SDS011;38631;47.572;10.704;2022-07-17T07:39:26;4.73;;;2.70;;
52734;SDS011;38631;47.572;10.704;2022-07-17T07:41:52;7.90;;;2.57;;
52734;SDS011;38631;47.572;10.704;2022-07-17T07:44:17;4.75;;;1.83;;
52734;SDS011;38631;47.572;10.704;2022-07-17T07:46:43;3.83;;;2.45;;
52734;SDS011;38631;47.572;10.704;2022-07-17T07:49:08;3.00;;;2.00;;
52734;SDS011;38631;47.572;10.704;2022-07-17T07:51:33;4.93;;;2.30;;
52734;SDS011;38631;47.572;10.704;2022-07-17T07:53:58;2.97;;;1.80;;
52734;SDS011;38631;47.572;10.704;2022-07-17T07:56:23;3.40;;;1.80;;
52734;SDS011;38631;47.572;10.704;2022-07-17T07:58:49;4.90;;;2.13;;
52734;SDS011;38631;47.572;10.704;2022-07-17T08:01:14;2.70;;;2.23;;
52734;SDS011;38631;47.572;10.704;2022-07-17T08:03:39;4.17;;;2.33;;
52734;SDS011;38631;47.572;10.704;2022-07-17T08:06:04;6.07;;;2.30;;
52734;SDS011;38631;47.572;10.704;2022-07-17T08:08:29;3.40;;;2.10;;
52734;SDS011;38631;47.572;10.704;2022-07-17T08:10:55;3.43;;;2.20;;
52734;SDS011;38631;47.572;10.704;2022-07-17T08:13:20;3.17;;;2.10;;
52734;SDS011;38631;47.572;10.704;2022-07-17T08:15:45;4.67;;;2.53;;
52734;SDS011;38631;47.572;10.704;2022-07-17T08:18:11;4.38;;;1.90;;
52734;SDS011;38631;47.572;10.704;2022-07-17T08:20:36;5.77;;;2.10;;
52734;SDS011;38631;47.572;10.704;2022-07-17T08:23:01;5.10;;;2.00;;
52734;SDS011;38631;47.572;10.704;2022-07-17T08:25:26;6.03;;;2.33;;
52734;SDS011;38631;47.572;10.704;2022-07-17T08:27:52;5.57;;;2.23;;
52734;SDS011;38631;47.572;10.704;2022-07-17T08:30:17;5.07;;;2.10;;
52734;SDS011;38631;47.572;10.704;2022-07-17T08:32:42;3.67;;;1.93;;
52734;SDS011;38631;47.572;10.704;2022-07-17T08:35:07;3.53;;;1.92;;
52734;SDS011;38631;47.572;10.704;2022-07-17T08:37:48;3.65;;;2.28;;
52734;SDS011;38631;47.572;10.704;2022-07-17T08:40:15;3.47;;;2.30;;
52734;SDS011;38631;47.572;10.704;2022-07-17T08:42:40;4.35;;;1.92;;
52734;SDS011;38631;47.572;10.704;2022-07-17T08:45:08;5.68;;;1.75;;
52734;SDS011;38631;47.572;10.704;2022-07-17T08:47:33;2.60;;;2.00;;
52734;SDS011;38631;47.572;10.704;2022-07-17T08:49:58;4.03;;;2.13;;
52734;SDS011;38631;47.572;10.704;2022-07-17T08:52:23;3.65;;;1.90;;
52734;SDS011;38631;47.572;10.704;2022-07-17T08:54:49;3.40;;;1.90;;
52734;SDS011;38631;47.572;10.704;2022-07-17T08:57:14;3.50;;;2.00;;
52734;SDS011;38631;47.572;10.704;2022-07-17T08:59:39;3.37;;;1.60;;
52734;SDS011;38631;47.572;10.704;2022-07-17T09:02:06;4.95;;;2.22;;
52734;SDS011;38631;47.572;10.704;2022-07-17T09:04:31;2.55;;;1.75;;
52734;SDS011;38631;47.572;10.704;2022-07-17T09:07:00;2.40;;;1.88;;
52734;SDS011;38631;47.572;10.704;2022-07-17T09:09:26;4.72;;;2.00;;
52734;SDS011;38631;47.572;10.704;2022-07-17T09:11:53;4.35;;;1.70;;
52734;SDS011;38631;47.572;10.704;2022-07-17T09:14:20;3.10;;;1.65;;
52734;SDS011;38631;47.572;10.704;2022-07-17T09:16:55;5.53;;;2.30;;
52734;SDS011;38631;47.572;10.704;2022-07-17T09:19:31;2.75;;;1.90;;
52734;SDS011;38631;47.572;10.704;2022-07-17T09:22:03;5.25;;;1.63;;
52734;SDS011;38631;47.572;10.704;2022-07-17T09:24:37;3.58;;;1.42;;
52734;SDS011;38631;47.572;10.704;2022-07-17T09:27:02;6.40;;;2.00;;
52734;SDS011;38631;47.572;10.704;2022-07-17T09:29:27;2.72;;;1.73;;
52734;SDS011;38631;47.572;10.704;2022-07-17T09:31:52;5.83;;;2.20;;
52734;SDS011;38631;47.572;10.704;2022-07-17T09:34:18;3.13;;;1.80;;
52734;SDS011;38631;47.572;10.704;2022-07-17T09:36:43;3.33;;;1.80;;
52734;SDS011;38631;47.572;10.704;2022-07-17T09:39:08;4.73;;;1.87;;
52734;SDS011;38631;47.572;10.704;2022-07-17T09:41:33;3.67;;;1.87;;
52734;SDS011;38631;47.572;10.704;2022-07-17T09:43:59;3.72;;;1.92;;
52734;SDS011;38631;47.572;10.704;2022-07-17T09:46:25;4.22;;;1.80;;
52734;SDS011;38631;47.572;10.704;2022-07-17T09:48:55;4.05;;;1.70;;
52734;SDS011;38631;47.572;10.704;2022-07-17T09:53:46;3.07;;;1.83;;
52734;SDS011;38631;47.572;10.704;2022-07-17T09:56:15;1.83;;;1.58;;
52734;SDS011;38631;47.572;10.704;2022-07-17T09:58:41;5.28;;;1.92;;
52734;SDS011;38631;47.572;10.704;2022-07-17T10:01:08;4.47;;;2.08;;
52734;SDS011;38631;47.572;10.704;2022-07-17T10:03:33;4.63;;;2.10;;
52734;SDS011;38631;47.572;10.704;2022-07-17T10:05:59;2.45;;;2.00;;
52734;SDS011;38631;47.572;10.704;2022-07-17T10:08:25;4.85;;;2.20;;
52734;SDS011;38631;47.572;10.704;2022-07-17T10:10:50;2.53;;;1.50;;
52734;SDS011;38631;47.572;10.704;2022-07-17T10:13:16;3.67;;;1.80;;
52734;SDS011;38631;47.572;10.704;2022-07-17T10:15:42;2.78;;;1.90;;
52734;SDS011;38631;47.572;10.704;2022-07-17T10:18:07;3.08;;;2.30;;
52734;SDS011;38631;47.572;10.704;2022-07-17T10:20:32;2.13;;;1.65;;
52734;SDS011;38631;47.572;10.704;2022-07-17T10:22:58;4.50;;;2.13;;
52734;SDS011;38631;47.572;10.704;2022-07-17T10:25:23;3.60;;;2.13;;
52734;SDS011;38631;47.572;10.704;2022-07-17T10:27:49;4.20;;;2.15;;
52734;SDS011;38631;47.572;10.704;2022-07-17T10:30:20;5.22;;;2.08;;
52734;SDS011;38631;47.572;10.704;2022-07-17T10:32:51;5.35;;;2.05;;
52734;SDS011;38631;47.572;10.704;2022-07-17T10:35:16;5.65;;;2.15;;
52734;SDS011;38631;47.572;10.704;2022-07-17T10:37:42;2.50;;;1.70;;
52734;SDS011;38631;47.572;10.704;2022-07-17T10:40:26;3.85;;;2.03;;
52734;SDS011;38631;47.572;10.704;2022-07-17T10:42:59;5.07;;;2.47;;
52734;SDS011;38631;47.572;10.704;2022-07-17T10:45:34;3.78;;;1.80;;
52734;SDS011;38631;47.572;10.704;2022-07-17T10:48:17;3.28;;;1.88;;
52734;SDS011;38631;47.572;10.704;2022-07-17T10:50:45;4.00;;;2.20;;
52734;SDS011;38631;47.572;10.704;2022-07-17T10:53:24;3.97;;;1.95;;
52734;SDS011;38631;47.572;10.704;2022-07-17T10:55:55;4.43;;;1.90;;
52734;SDS011;38631;47.572;10.704;2022-07-17T10:58:28;4.28;;;2.20;;
52734;SDS011;38631;47.572;10.704;2022-07-17T11:01:00;6.20;;;1.90;;
52734;SDS011;38631;47.572;10.704;2022-07-17T11:03:26;2.40;;;1.88;;
52734;SDS011;38631;47.572;10.704;2022-07-17T11:05:51;2.90;;;2.03;;
52734;SDS011;38631;47.572;10.704;2022-07-17T11:08:17;3.38;;;1.80;;
52734;SDS011;38631;47.572;10.704;2022-07-17T11:10:42;4.28;;;1.90;;
52734;SDS011;38631;47.572;10.704;2022-07-17T11:13:08;2.37;;;1.97;;
52734;SDS011;38631;47.572;10.704;2022-07-17T11:15:38;4.95;;;1.90;;
52734;SDS011;38631;47.572;10.704;2022-07-17T11:18:03;7.82;;;2.85;;
52734;SDS011;38631;47.572;10.704;2022-07-17T11:20:28;3.90;;;2.07;;
52734;SDS011;38631;47.572;10.704;2022-07-17T11:22:57;3.28;;;2.08;;
52734;SDS011;38631;47.572;10.704;2022-07-17T11:25:23;3.78;;;1.83;;
52734;SDS011;38631;47.572;10.704;2022-07-17T11:27:48;4.90;;;1.93;;
52734;SDS011;38631;47.572;10.704;2022-07-17T11:30:13;4.07;;;1.50;;
52734;SDS011;38631;47.572;10.704;2022-07-17T11:32:38;3.50;;;1.60;;
52734;SDS011;38631;47.572;10.704;2022-07-17T11:35:18;5.20;;;1.95;;
52734;SDS011;38631;47.572;10.704;2022-07-17T11:37:44;4.15;;;2.75;;
52734;SDS011;38631;47.572;10.704;2022-07-17T11:40:10;3.20;;;2.23;;
52734;SDS011;38631;47.572;10.704;2022-07-17T11:42:35;3.88;;;2.90;;
52734;SDS011;38631;47.572;10.704;2022-07-17T11:45:00;3.17;;;2.60;;
52734;SDS011;38631;47.572;10.704;2022-07-17T11:47:26;4.70;;;2.50;;
52734;SDS011;38631;47.572;10.704;2022-07-17T11:49:51;3.95;;;1.70;;
52734;SDS011;38631;47.572;10.704;2022-07-17T11:52:18;2.38;;;1.67;;
52734;SDS011;38631;47.572;10.704;2022-07-17T11:57:09;3.20;;;1.60;;
52734;SDS011;38631;47.572;10.704;2022-07-17T11:59:35;2.75;;;1.73;;
52734;SDS011;38631;47.572;10.704;2022-07-17T12:02:10;3.20;;;1.87;;
52734;SDS011;38631;47.572;10.704;2022-07-17T12:04:35;3.75;;;2.05;;
52734;SDS011;38631;47.572;10.704;2022-07-17T12:07:01;6.47;;;2.20;;
52734;SDS011;38631;47.572;10.704;2022-07-17T12:09:27;6.47;;;1.80;;
52734;SDS011;38631;47.572;10.704;2022-07-17T12:11:53;3.05;;;1.55;;
52734;SDS011;38631;47.572;10.704;2022-07-17T12:14:18;5.60;;;1.67;;
52734;SDS011;38631;47.572;10.704;2022-07-17T12:16:43;5.73;;;2.23;;
52734;SDS011;38631;47.572;10.704;2022-07-17T12:21:57;3.25;;;1.95;;
52734;SDS011;38631;47.572;10.704;2022-07-17T12:24:26;2.42;;;1.67;;
52734;SDS011;38631;47.572;10.704;2022-07-17T12:26:53;4.72;;;2.30;;
52734;SDS011;38631;47.572;10.704;2022-07-17T12:29:18;6.45;;;1.90;;
52734;SDS011;38631;47.572;10.704;2022-07-17T12:31:43;2.97;;;1.65;;
52734;SDS011;38631;47.572;10.704;2022-07-17T12:34:09;2.83;;;1.88;;
52734;SDS011;38631;47.572;10.704;2022-07-17T12:36:34;2.40;;;1.47;;
52734;SDS011;38631;47.572;10.704;2022-07-17T12:38:59;4.67;;;2.00;;
52734;SDS011;38631;47.572;10.704;2022-07-17T12:41:25;3.27;;;2.10;;
52734;SDS011;38631;47.572;10.704;2022-07-17T12:43:50;2.88;;;1.70;;
52734;SDS011;38631;47.572;10.704;2022-07-17T12:46:15;6.53;;;2.03;;
52734;SDS011;38631;47.572;10.704;2022-07-17T12:48:42;5.25;;;1.80;;
52734;SDS011;38631;47.572;10.704;2022-07-17T12:51:08;4.90;;;1.90;;
52734;SDS011;38631;47.572;10.704;2022-07-17T12:53:34;3.10;;;1.77;;
52734;SDS011;38631;47.572;10.704;2022-07-17T12:56:00;6.30;;;2.22;;
52734;SDS011;38631;47.572;10.704;2022-07-17T12:58:25;3.80;;;1.80;;
52734;SDS011;38631;47.572;10.704;2022-07-17T13:00:50;9.80;;;2.03;;
52734;SDS011;38631;47.572;10.704;2022-07-17T13:03:16;3.00;;;1.70;;
52734;SDS011;38631;47.572;10.704;2022-07-17T13:05:41;5.65;;;1.80;;
52734;SDS011;38631;47.572;10.704;2022-07-17T13:08:07;3.17;;;1.87;;
52734;SDS011;38631;47.572;10.704;2022-07-17T13:10:33;4.77;;;1.90;;
52734;SDS011;38631;47.572;10.704;2022-07-17T13:12:59;4.32;;;2.20;;
52734;SDS011;38631;47.572;10.704;2022-07-17T13:15:24;3.47;;;1.90;;
52734;SDS011;38631;47.572;10.704;2022-07-17T13:17:49;3.73;;;1.93;;
52734;SDS011;38631;47.572;10.704;2022-07-17T13:20:15;3.63;;;1.70;;
52734;SDS011;38631;47.572;10.704;2022-07-17T13:22:41;2.70;;;2.00;;
52734;SDS011;38631;47.572;10.704;2022-07-17T13:25:06;4.82;;;2.28;;
52734;SDS011;38631;47.572;10.704;2022-07-17T13:27:32;5.13;;;1.80;;
52734;SDS011;38631;47.572;10.704;2022-07-17T13:29:57;6.90;;;2.03;;
52734;SDS011;38631;47.572;10.704;2022-07-17T13:32:22;6.07;;;2.27;;
52734;SDS011;38631;47.572;10.704;2022-07-17T13:34:47;5.18;;;2.25;;
52734;SDS011;38631;47.572;10.704;2022-07-17T13:37:13;2.78;;;2.15;;
52734;SDS011;38631;47.572;10.704;2022-07-17T13:39:41;2.80;;;1.67;;
52734;SDS011;38631;47.572;10.704;2022-07-17T13:42:07;3.10;;;2.03;;
52734;SDS011;38631;47.572;10.704;2022-07-17T13:44:33;4.28;;;1.92;;
52734;SDS011;38631;47.572;10.704;2022-07-17T13:46:58;4.90;;;1.80;;
52734;SDS011;38631;47.572;10.704;2022-07-17T13:49:24;3.78;;;2.22;;
52734;SDS011;38631;47.572;10.704;2022-07-17T13:51:49;3.33;;;1.80;;
52734;SDS011;38631;47.572;10.704;2022-07-17T13:54:14;4.70;;;2.00;;
52734;SDS011;38631;47.572;10.704;2022-07-17T13:56:39;2.27;;;1.73;;
52734;SDS011;38631;47.572;10.704;2022-07-17T13:59:05;5.35;;;2.13;;
52734;SDS011;38631;47.572;10.704;2022-07-17T14:01:31;2.67;;;1.95;;
52734;SDS011;38631;47.572;10.704;2022-07-17T14:03:56;5.03;;;2.15;;
52734;SDS011;38631;47.572;10.704;2022-07-17T14:06:23;3.15;;;1.88;;
52734;SDS011;38631;47.572;10.704;2022-07-17T14:08:48;3.00;;;1.90;;
52734;SDS011;38631;47.572;10.704;2022-07-17T14:11:13;3.50;;;2.10;;
52734;SDS011;38631;47.572;10.704;2022-07-17T14:13:39;2.33;;;1.80;;
52734;SDS011;38631;47.572;10.704;2022-07-17T14:16:04;3.35;;;1.80;;
52734;SDS011;38631;47.572;10.704;2022-07-17T14:18:30;5.22;;;1.77;;
52734;SDS011;38631;47.572;10.704;2022-07-17T14:20:55;5.45;;;1.90;;
52734;SDS011;38631;47.572;10.704;2022-07-17T14:23:20;3.63;;;2.03;;
52734;SDS011;38631;47.572;10.704;2022-07-17T14:25:46;4.97;;;2.10;;
52734;SDS011;38631;47.572;10.704;2022-07-17T14:28:11;4.45;;;2.05;;
52734;SDS011;38631;47.572;10.704;2022-07-17T14:30:37;3.17;;;1.70;;
52734;SDS011;38631;47.572;10.704;2022-07-17T14:33:02;3.55;;;2.40;;